createdAt,value
2022-11-10T00:00:25.218Z,2.80
2022-11-10T00:03:11.188Z,2.33
2022-11-10T00:05:55.985Z,2.70
2022-11-10T00:08:40.753Z,2.47
2022-11-10T00:11:25.842Z,2.00
2022-11-10T00:14:28.748Z,2.10
2022-11-10T00:17:14.315Z,2.20
2022-11-10T00:19:59.174Z,2.70
2022-11-10T00:22:43.903Z,1.83
2022-11-10T00:25:28.313Z,2.60
2022-11-10T00:28:12.877Z,1.90
2022-11-10T00:30:58.512Z,2.10
2022-11-10T00:33:44.120Z,2.20
2022-11-10T00:36:28.877Z,2.37
2022-11-10T00:39:13.551Z,2.17
2022-11-10T00:41:58.241Z,2.00
2022-11-10T00:44:42.807Z,2.00
2022-11-10T00:47:27.411Z,2.33
2022-11-10T00:50:12.224Z,2.47
2022-11-10T00:52:57.136Z,2.03
2022-11-10T00:55:42.105Z,2.20
2022-11-10T00:58:26.900Z,1.90
2022-11-10T01:01:12.600Z,1.93
2022-11-10T01:03:57.384Z,2.07
2022-11-10T01:06:43.172Z,2.40
2022-11-10T01:09:27.709Z,1.73
2022-11-10T01:12:13.698Z,2.20
2022-11-10T01:14:58.512Z,2.33
2022-11-10T01:17:43.192Z,2.50
2022-11-10T01:20:27.824Z,2.30
2022-11-10T01:23:12.400Z,2.40
2022-11-10T01:26:07.961Z,2.50
2022-11-10T01:28:53.161Z,2.30
2022-11-10T01:31:38.009Z,2.47
2022-11-10T01:34:22.762Z,2.30
2022-11-10T01:37:07.834Z,2.20
2022-11-10T01:39:52.422Z,2.27
2022-11-10T01:42:56.660Z,2.60
2022-11-10T01:46:02.186Z,2.13
2022-11-10T01:48:58.393Z,2.37
2022-11-10T01:52:00.211Z,2.07
2022-11-10T01:54:48.982Z,2.70
2022-11-10T01:57:37.759Z,2.37
2022-11-10T02:00:23.197Z,2.07
2022-11-10T02:03:39.656Z,2.00
2022-11-10T02:06:32.548Z,2.47
2022-11-10T02:09:17.788Z,2.10
2022-11-10T02:12:03.503Z,2.20
2022-11-10T02:14:48.128Z,2.80
2022-11-10T02:17:33.348Z,2.00
2022-11-10T02:20:21.086Z,2.33
2022-11-10T02:23:34.684Z,2.60
2022-11-10T02:26:26.595Z,2.10
2022-11-10T02:29:11.703Z,2.17
2022-11-10T02:31:56.573Z,2.20
2022-11-10T02:34:42.026Z,2.17
2022-11-10T02:37:26.709Z,2.50
2022-11-10T02:40:11.542Z,2.07
2022-11-10T02:42:56.065Z,2.50
2022-11-10T02:45:43.351Z,2.30
2022-11-10T02:48:30.623Z,1.87
2022-11-10T02:51:15.249Z,1.90
2022-11-10T02:54:00.310Z,1.87
2022-11-10T02:56:44.820Z,2.40
2022-11-10T02:59:29.341Z,2.40
2022-11-10T03:02:14.603Z,2.33
2022-11-10T03:04:59.650Z,2.50
2022-11-10T03:07:44.606Z,2.20
2022-11-10T03:10:30.525Z,2.47
2022-11-10T03:13:15.555Z,1.80
2022-11-10T03:16:00.039Z,2.40
2022-11-10T03:18:44.691Z,2.50
2022-11-10T03:21:29.261Z,2.00
2022-11-10T03:24:13.825Z,1.90
2022-11-10T03:26:58.328Z,2.37
2022-11-10T03:29:42.834Z,2.53
2022-11-10T03:32:27.480Z,2.40
2022-11-10T03:35:12.076Z,1.60
2022-11-10T03:37:57.097Z,1.93
2022-11-10T03:41:12.014Z,1.93
2022-11-10T03:43:47.094Z,2.03
2022-11-10T03:46:32.119Z,2.10
2022-11-10T03:49:17.156Z,1.50
2022-11-10T03:52:01.802Z,1.90
2022-11-10T03:54:46.587Z,1.73
2022-11-10T03:57:31.671Z,2.47
2022-11-10T04:00:16.257Z,2.00
2022-11-10T04:03:01.427Z,2.40
2022-11-10T04:06:04.865Z,1.90
2022-11-10T04:09:01.167Z,1.83
2022-11-10T04:12:03.980Z,1.97
2022-11-10T04:15:06.928Z,1.50
2022-11-10T04:17:51.515Z,2.07
2022-11-10T04:20:36.091Z,1.83
2022-11-10T04:23:27.429Z,1.93
2022-11-10T04:26:29.247Z,2.33
2022-11-10T04:29:17.412Z,2.37
2022-11-10T04:32:02.250Z,2.00
2022-11-10T04:34:46.836Z,1.83
2022-11-10T04:37:31.250Z,2.33
2022-11-10T04:40:16.021Z,1.70
2022-11-10T04:43:00.442Z,2.23
2022-11-10T04:45:45.150Z,2.60
2022-11-10T04:48:30.350Z,2.47
2022-11-10T04:51:16.629Z,2.17
2022-11-10T04:54:02.674Z,2.03
2022-11-10T04:56:47.070Z,3.20
2022-11-10T04:59:31.762Z,1.90
2022-11-10T05:02:16.828Z,2.30
2022-11-10T05:05:02.663Z,2.23
2022-11-10T05:07:48.266Z,2.10
2022-11-10T05:10:34.721Z,2.20
2022-11-10T05:13:19.894Z,2.80
2022-11-10T05:16:06.269Z,2.00
2022-11-10T05:18:53.386Z,2.23
2022-11-10T05:21:38.048Z,2.10
2022-11-10T05:24:22.933Z,1.97
2022-11-10T05:27:10.482Z,3.17
2022-11-10T05:29:55.757Z,2.37
2022-11-10T05:32:40.695Z,2.70
2022-11-10T05:35:25.467Z,2.17
2022-11-10T05:38:10.405Z,2.00
2022-11-10T05:40:55.535Z,2.20
2022-11-10T05:43:40.373Z,2.10
2022-11-10T05:46:25.221Z,2.63
2022-11-10T05:49:10.201Z,1.83
2022-11-10T05:51:54.897Z,2.60
2022-11-10T05:54:39.765Z,2.53
2022-11-10T05:57:24.355Z,2.57
2022-11-10T06:00:10.163Z,2.53
2022-11-10T06:03:05.308Z,1.90
2022-11-10T06:05:50.709Z,1.97
2022-11-10T06:08:51.630Z,2.27
2022-11-10T06:17:23.461Z,2.40
2022-11-10T06:20:08.652Z,1.90
2022-11-10T06:23:03.751Z,2.40
2022-11-10T06:25:48.604Z,3.10
2022-11-10T06:28:33.380Z,2.43
2022-11-10T06:31:18.303Z,2.57
2022-11-10T06:34:03.227Z,1.97
2022-11-10T06:36:48.148Z,2.27
2022-11-10T06:39:32.800Z,2.50
2022-11-10T06:42:17.275Z,2.67
2022-11-10T06:45:02.415Z,2.53
2022-11-10T06:47:47.219Z,2.57
2022-11-10T06:50:32.391Z,2.57
2022-11-10T06:53:18.447Z,2.60
2022-11-10T06:56:06.009Z,2.40
2022-11-10T06:58:51.006Z,2.60
2022-11-10T07:01:35.645Z,5.00
2022-11-10T07:04:21.024Z,3.40
2022-11-10T07:07:06.490Z,2.67
2022-11-10T07:09:51.339Z,3.93
2022-11-10T07:12:36.138Z,3.17
2022-11-10T07:15:20.903Z,3.50
2022-11-10T07:18:05.720Z,3.00
2022-11-10T07:20:50.677Z,3.07
2022-11-10T07:23:35.375Z,4.47
2022-11-10T07:26:20.328Z,4.57
2022-11-10T07:29:04.872Z,3.47
2022-11-10T07:31:49.559Z,4.10
2022-11-10T07:34:34.133Z,5.10
2022-11-10T07:37:18.697Z,3.63
2022-11-10T07:40:03.711Z,2.77
2022-11-10T07:42:48.926Z,3.70
2022-11-10T07:45:33.769Z,2.80
2022-11-10T07:48:19.143Z,2.10
2022-11-10T07:51:04.440Z,2.97
2022-11-10T07:53:49.548Z,2.40
2022-11-10T07:56:34.539Z,2.57
2022-11-10T07:59:19.092Z,2.60
2022-11-10T08:02:03.767Z,2.80
2022-11-10T08:04:48.769Z,2.07
2022-11-10T08:07:33.467Z,2.50
2022-11-10T08:10:18.451Z,2.30
2022-11-10T08:13:07.342Z,2.43
2022-11-10T08:15:51.903Z,1.97
2022-11-10T08:18:36.844Z,2.67
2022-11-10T08:21:21.504Z,2.47
2022-11-10T08:24:07.685Z,2.80
2022-11-10T08:26:53.292Z,2.67
2022-11-10T08:29:37.973Z,2.83
2022-11-10T08:32:22.473Z,2.90
2022-11-10T08:35:07.693Z,2.90
2022-11-10T08:37:53.114Z,2.53
2022-11-10T08:40:39.302Z,2.30
2022-11-10T08:43:25.032Z,2.80
2022-11-10T08:46:09.915Z,2.30
2022-11-10T08:48:54.411Z,2.90
2022-11-10T08:51:39.462Z,2.50
2022-11-10T08:54:24.091Z,2.00
2022-11-10T08:57:08.506Z,2.50
2022-11-10T08:59:53.140Z,2.47
2022-11-10T09:02:37.743Z,2.33
2022-11-10T09:05:23.114Z,2.60
2022-11-10T09:08:08.981Z,1.90
2022-11-10T09:10:53.698Z,2.50
2022-11-10T09:13:38.710Z,2.50
2022-11-10T09:16:23.308Z,2.23
2022-11-10T09:19:08.112Z,2.27
2022-11-10T09:21:53.064Z,2.67
2022-11-10T09:24:37.857Z,2.70
2022-11-10T09:27:22.831Z,2.23
2022-11-10T09:30:11.773Z,2.30
2022-11-10T09:33:00.213Z,2.70
2022-11-10T09:35:44.938Z,2.40
2022-11-10T09:38:29.903Z,2.70
2022-11-10T09:41:15.021Z,2.20
2022-11-10T09:44:39.297Z,2.80
2022-11-10T09:51:08.119Z,2.50
2022-11-10T09:54:00.739Z,2.70
2022-11-10T09:56:45.555Z,2.13
2022-11-10T09:59:33.205Z,2.80
2022-11-10T10:02:40.391Z,2.40
2022-11-10T10:05:54.965Z,2.53
2022-11-10T10:09:05.018Z,1.73
2022-11-10T10:12:42.960Z,2.47
2022-11-10T10:16:15.586Z,2.43
2022-11-10T10:19:32.911Z,2.13
2022-11-10T10:22:34.948Z,1.80
2022-11-10T10:25:26.098Z,2.27
2022-11-10T10:28:40.421Z,2.20
2022-11-10T10:31:34.462Z,2.10
2022-11-10T10:34:31.935Z,2.40
2022-11-10T10:37:43.072Z,2.23
2022-11-10T10:40:27.620Z,2.23
2022-11-10T10:43:12.410Z,2.40
2022-11-10T10:46:08.728Z,2.10
2022-11-10T10:52:15.782Z,2.13
2022-11-10T10:55:06.392Z,2.30
2022-11-10T10:57:57.827Z,2.63
2022-11-10T11:00:45.937Z,2.17
2022-11-10T11:03:45.926Z,2.43
2022-11-10T11:06:33.560Z,2.37
2022-11-10T11:09:41.448Z,2.40
2022-11-10T11:12:32.880Z,2.07
2022-11-10T11:15:28.752Z,2.40
2022-11-10T11:18:17.821Z,1.77
2022-11-10T11:21:23.686Z,2.17
2022-11-10T11:25:05.400Z,2.30
2022-11-10T11:28:02.965Z,2.00
2022-11-10T11:31:01.244Z,2.40
2022-11-10T11:34:16.349Z,2.27
2022-11-10T11:37:37.538Z,1.97
2022-11-10T11:41:02.305Z,1.97
2022-11-10T11:44:18.478Z,2.23
2022-11-10T11:47:34.891Z,1.60
2022-11-10T11:50:38.197Z,1.87
2022-11-10T11:53:37.198Z,1.67
2022-11-10T11:56:40.433Z,1.70
2022-11-10T12:00:03.584Z,2.23
2022-11-10T12:04:06.162Z,1.70
2022-11-10T12:07:30.798Z,2.10
2022-11-10T12:10:40.525Z,1.70
2022-11-10T12:14:04.824Z,2.20
2022-11-10T12:17:21.019Z,1.70
2022-11-10T12:20:52.818Z,1.57
2022-11-10T12:24:14.856Z,2.00
2022-11-10T12:27:15.891Z,1.70
2022-11-10T12:30:17.371Z,2.00
2022-11-10T12:33:42.892Z,1.97
2022-11-10T12:36:30.210Z,1.63
2022-11-10T12:39:45.137Z,2.00
2022-11-10T12:42:33.163Z,2.30
2022-11-10T12:45:23.614Z,1.87
2022-11-10T12:48:15.206Z,2.10
2022-11-10T12:51:27.180Z,1.90
2022-11-10T12:54:17.187Z,1.90
2022-11-10T12:57:19.047Z,2.00
2022-11-10T13:00:28.028Z,2.20
2022-11-10T13:03:36.798Z,1.50
2022-11-10T13:06:36.334Z,1.70
2022-11-10T13:09:37.277Z,1.80
2022-11-10T13:12:25.170Z,2.13
2022-11-10T13:15:38.832Z,2.10
2022-11-10T13:18:43.814Z,2.53
2022-11-10T13:22:11.313Z,1.70
2022-11-10T13:25:37.205Z,2.10
2022-11-10T13:28:46.855Z,2.20
2022-11-10T13:31:31.688Z,1.83
2022-11-10T13:34:31.855Z,2.00
2022-11-10T13:37:32.167Z,2.30
2022-11-10T13:40:26.473Z,2.27
2022-11-10T13:43:17.510Z,1.93
2022-11-10T13:46:04.351Z,2.10
2022-11-10T13:49:21.036Z,1.97
2022-11-10T13:52:25.986Z,1.80
2022-11-10T13:55:48.304Z,2.03
2022-11-10T13:58:34.597Z,1.93
2022-11-10T14:01:29.673Z,1.80
2022-11-10T14:04:43.161Z,1.90
2022-11-10T14:07:38.419Z,1.80
2022-11-10T14:10:54.035Z,3.50
2022-11-10T14:13:42.150Z,2.10
2022-11-10T14:16:31.931Z,2.20
2022-11-10T14:19:33.123Z,1.50
2022-11-10T14:22:37.047Z,2.00
2022-11-10T14:25:42.376Z,2.43
2022-11-10T14:28:37.267Z,1.87
2022-11-10T14:31:25.372Z,2.13
2022-11-10T14:34:16.856Z,1.60
2022-11-10T14:37:03.580Z,1.70
2022-11-10T14:39:55.642Z,1.57
2022-11-10T14:42:40.805Z,2.23
2022-11-10T14:45:28.067Z,1.97
2022-11-10T14:48:20.096Z,1.60
2022-11-10T14:51:18.385Z,1.70
2022-11-10T14:54:03.374Z,2.20
2022-11-10T14:56:48.468Z,1.60
2022-11-10T14:59:33.523Z,2.30
2022-11-10T15:02:19.698Z,1.70
2022-11-10T15:05:05.265Z,1.80
2022-11-10T15:07:57.946Z,2.00
2022-11-10T15:10:50.092Z,2.13
2022-11-10T15:13:38.054Z,1.70
2022-11-10T15:16:36.394Z,1.87
2022-11-10T15:19:38.740Z,1.90
2022-11-10T15:22:34.694Z,2.00
2022-11-10T15:25:23.373Z,2.10
2022-11-10T15:28:31.049Z,1.60
2022-11-10T15:31:29.212Z,2.13
2022-11-10T15:34:40.649Z,2.00
2022-11-10T15:37:31.562Z,2.27
2022-11-10T15:40:50.816Z,2.33
2022-11-10T15:43:35.469Z,2.10
2022-11-10T15:46:24.977Z,2.57
2022-11-10T15:49:27.005Z,2.40
2022-11-10T15:52:21.891Z,2.27
2022-11-10T15:55:20.798Z,2.20
2022-11-10T15:58:17.790Z,2.20
2022-11-10T16:01:02.986Z,2.07
2022-11-10T16:03:47.825Z,2.80
2022-11-10T16:06:32.545Z,2.47
2022-11-10T16:09:17.687Z,2.33
2022-11-10T16:12:02.296Z,2.30
2022-11-10T16:14:51.220Z,3.00
2022-11-10T16:17:36.034Z,3.17
2022-11-10T16:20:20.487Z,2.90
2022-11-10T16:23:05.903Z,3.10
2022-11-10T16:25:54.478Z,2.40
2022-11-10T16:28:43.209Z,2.90
2022-11-10T16:31:28.505Z,3.03
2022-11-10T16:34:14.145Z,3.23
2022-11-10T16:36:59.236Z,2.50
2022-11-10T16:39:44.240Z,2.90
2022-11-10T16:42:28.921Z,15.90
2022-11-10T16:45:23.268Z,3.17
2022-11-10T16:48:08.597Z,3.43
2022-11-10T16:50:57.662Z,4.57
2022-11-10T16:53:46.118Z,2.77
2022-11-10T16:56:30.762Z,3.10
2022-11-10T16:59:15.496Z,3.20
2022-11-10T17:02:00.069Z,3.50
2022-11-10T17:04:47.968Z,3.20
2022-11-10T17:07:33.432Z,3.60
2022-11-10T17:10:20.616Z,3.10
2022-11-10T17:13:06.347Z,2.57
2022-11-10T17:16:04.203Z,3.00
2022-11-10T17:18:51.138Z,3.03
2022-11-10T17:21:36.454Z,3.03
2022-11-10T17:24:21.364Z,3.70
2022-11-10T17:27:07.552Z,2.30
2022-11-10T17:29:52.476Z,3.10
2022-11-10T17:33:03.468Z,3.40
2022-11-10T17:35:46.239Z,3.50
2022-11-10T17:38:35.394Z,5.17
2022-11-10T17:41:20.376Z,3.93
2022-11-10T17:44:14.358Z,4.27
2022-11-10T17:46:59.387Z,4.93
2022-11-10T17:49:44.068Z,4.20
2022-11-10T17:52:28.618Z,6.17
2022-11-10T17:55:18.910Z,3.70
2022-11-10T17:58:03.962Z,5.27
2022-11-10T18:00:50.150Z,11.97
2022-11-10T18:03:35.194Z,10.27
2022-11-10T18:06:20.706Z,6.60
2022-11-10T18:09:05.216Z,8.50
2022-11-10T18:11:49.711Z,7.70
2022-11-10T18:14:34.327Z,5.67
2022-11-10T18:17:19.051Z,4.90
2022-11-10T18:20:04.578Z,5.40
2022-11-10T18:22:49.264Z,6.17
2022-11-10T18:25:34.810Z,5.03
2022-11-10T18:28:22.205Z,4.87
2022-11-10T18:31:10.656Z,4.00
2022-11-10T18:33:55.396Z,4.33
2022-11-10T18:36:40.105Z,3.10
2022-11-10T18:39:25.015Z,5.13
2022-11-10T18:42:09.559Z,4.50
2022-11-10T18:44:54.536Z,5.10
2022-11-10T18:47:39.376Z,4.50
2022-11-10T18:50:23.972Z,4.77
2022-11-10T18:53:08.582Z,4.63
2022-11-10T18:55:54.915Z,4.07
2022-11-10T18:58:41.205Z,4.57
2022-11-10T19:01:26.680Z,4.93
2022-11-10T19:04:13.131Z,3.73
2022-11-10T19:06:57.925Z,4.10
2022-11-10T19:09:43.631Z,4.60
2022-11-10T19:12:28.666Z,4.73
2022-11-10T19:15:13.032Z,4.93
2022-11-10T19:17:57.502Z,4.90
2022-11-10T19:20:42.556Z,5.30
2022-11-10T19:23:27.489Z,5.70
2022-11-10T19:26:22.418Z,4.67
2022-11-10T19:29:07.816Z,4.77
2022-11-10T19:31:52.415Z,5.87
2022-11-10T19:34:36.980Z,5.07
2022-11-10T19:37:22.447Z,5.10
2022-11-10T19:40:08.594Z,6.13
2022-11-10T19:42:53.486Z,4.90
2022-11-10T19:45:38.187Z,5.77
2022-11-10T19:48:23.022Z,6.07
2022-11-10T19:51:09.517Z,6.57
2022-11-10T19:54:08.184Z,6.63
2022-11-10T19:57:00.392Z,5.43
2022-11-10T19:59:45.037Z,5.53
2022-11-10T20:02:29.623Z,5.97
2022-11-10T20:05:15.883Z,6.30
2022-11-10T20:08:12.444Z,5.23
2022-11-10T20:11:12.512Z,5.73
2022-11-10T20:14:02.930Z,5.93
2022-11-10T20:16:47.613Z,4.83
2022-11-10T20:19:40.474Z,4.83
2022-11-10T20:22:26.115Z,4.87
2022-11-10T20:25:11.416Z,4.53
2022-11-10T20:27:57.406Z,5.43
2022-11-10T20:30:43.790Z,4.10
2022-11-10T20:33:30.144Z,5.27
2022-11-10T20:36:27.670Z,5.47
2022-11-10T20:39:12.215Z,4.90
2022-11-10T20:41:56.947Z,5.80
2022-11-10T20:44:42.046Z,6.00
2022-11-10T20:47:30.012Z,4.47
2022-11-10T20:50:19.205Z,6.20
2022-11-10T20:53:06.409Z,5.70
2022-11-10T20:56:01.085Z,7.43
2022-11-10T20:58:45.675Z,6.83
2022-11-10T21:01:31.733Z,7.30
2022-11-10T21:04:17.274Z,7.73
2022-11-10T21:07:02.734Z,7.70
2022-11-10T21:09:47.518Z,7.30
2022-11-10T21:12:50.152Z,7.73
2022-11-10T21:15:38.797Z,7.67
2022-11-10T21:18:30.951Z,7.00
2022-11-10T21:21:25.605Z,5.93
2022-11-10T21:24:11.390Z,5.00
2022-11-10T21:26:57.480Z,5.63
2022-11-10T21:29:42.318Z,6.63
2022-11-10T21:32:27.101Z,8.43
2022-11-10T21:35:11.838Z,7.63
2022-11-10T21:37:56.610Z,7.73
2022-11-10T21:40:41.457Z,6.53
2022-11-10T21:43:26.002Z,5.10
2022-11-10T21:46:10.675Z,5.77
2022-11-10T21:48:55.214Z,5.93
2022-11-10T21:51:40.196Z,6.80
2022-11-10T21:54:24.624Z,5.53
2022-11-10T21:57:09.387Z,7.20
2022-11-10T21:59:53.852Z,7.07
2022-11-10T22:02:38.510Z,5.50
2022-11-10T22:05:23.114Z,5.60
2022-11-10T22:08:07.769Z,6.70
2022-11-10T22:11:10.735Z,6.83
2022-11-10T22:14:13.640Z,6.90
2022-11-10T22:17:17.843Z,6.90
2022-11-10T22:20:03.052Z,7.90
2022-11-10T22:22:49.429Z,5.77
2022-11-10T22:25:34.026Z,6.40
2022-11-10T22:28:19.320Z,7.13
2022-11-10T22:31:06.648Z,5.80
2022-11-10T22:33:51.324Z,5.80
2022-11-10T22:36:35.972Z,6.37
2022-11-10T22:39:20.531Z,7.40
2022-11-10T22:42:23.506Z,6.40
2022-11-10T22:45:09.080Z,6.47
2022-11-10T22:48:13.271Z,6.37
2022-11-10T22:50:59.266Z,5.63
2022-11-10T22:53:43.993Z,5.40
2022-11-10T22:56:31.267Z,6.87
2022-11-10T22:59:17.058Z,6.80
2022-11-10T23:02:01.912Z,5.53
2022-11-10T23:04:46.777Z,5.53
2022-11-10T23:07:31.331Z,6.13
2022-11-10T23:10:15.915Z,6.00
2022-11-10T23:13:00.777Z,5.03
2022-11-10T23:15:51.186Z,6.40
2022-11-10T23:18:41.307Z,5.57
2022-11-10T23:21:29.046Z,5.57
2022-11-10T23:24:14.984Z,5.80
2022-11-10T23:26:59.532Z,5.93
2022-11-10T23:29:44.021Z,7.13
2022-11-10T23:32:28.609Z,6.10
2022-11-10T23:35:13.091Z,4.73
2022-11-10T23:37:59.552Z,6.70
2022-11-10T23:40:44.226Z,6.70
2022-11-10T23:43:29.991Z,6.20
2022-11-10T23:46:15.219Z,5.67
2022-11-10T23:48:59.751Z,6.10
2022-11-10T23:51:44.412Z,8.90
2022-11-10T23:54:28.886Z,6.80
2022-11-10T23:57:13.444Z,7.90
2022-11-10T23:59:57.930Z,5.40
